createdAt,value
2022-12-03T00:00:48.953Z,103285.16
2022-12-03T00:03:18.100Z,103306.78
2022-12-03T00:05:49.086Z,103272.75
2022-12-03T00:08:18.401Z,103274.56
2022-12-03T00:10:47.779Z,103293.97
2022-12-03T00:13:16.258Z,103281.41
2022-12-03T00:15:46.160Z,103311.63
2022-12-03T00:18:15.179Z,103267.72
2022-12-03T00:20:46.251Z,103321.91
2022-12-03T00:23:15.217Z,103310.22
2022-12-03T00:25:44.169Z,103193.13
2022-12-03T00:28:12.826Z,103298.50
2022-12-03T00:30:41.688Z,103265.19
2022-12-03T00:33:10.526Z,103288.63
2022-12-03T00:35:39.447Z,103316.00
2022-12-03T00:38:08.338Z,103276.94
2022-12-03T00:40:37.192Z,103270.59
2022-12-03T00:43:05.821Z,103268.06
2022-12-03T00:45:34.668Z,103274.56
2022-12-03T00:48:03.399Z,103282.16
2022-12-03T00:50:32.332Z,103274.94
2022-12-03T00:53:00.868Z,103290.81
2022-12-03T00:55:29.924Z,103272.41
2022-12-03T00:57:58.793Z,103310.25
2022-12-03T01:00:27.888Z,103262.16
2022-12-03T01:02:56.709Z,103268.06
2022-12-03T01:05:25.864Z,103317.28
2022-12-03T01:07:54.762Z,103286.63
2022-12-03T01:10:23.890Z,103266.09
2022-12-03T01:12:52.759Z,103278.00
2022-12-03T01:15:21.489Z,103296.91
2022-12-03T01:17:50.595Z,103291.88
2022-12-03T01:20:19.815Z,103285.19
2022-12-03T01:22:48.546Z,103195.88
2022-12-03T01:25:17.631Z,103270.06
2022-12-03T01:27:46.497Z,103173.19
2022-12-03T01:30:15.618Z,103274.94
2022-12-03T01:32:44.777Z,103270.28
2022-12-03T01:35:13.775Z,103277.47
2022-12-03T01:37:42.751Z,103279.81
2022-12-03T01:40:16.555Z,103293.69
2022-12-03T01:42:45.240Z,103292.97
2022-12-03T01:45:23.028Z,103277.13
2022-12-03T01:47:52.217Z,103302.50
2022-12-03T01:50:32.904Z,103276.75
2022-12-03T01:53:06.138Z,103247.19
2022-12-03T01:55:35.121Z,103298.91
2022-12-03T01:58:04.796Z,103268.09
2022-12-03T02:00:33.783Z,103205.81
2022-12-03T02:03:06.796Z,103266.28
2022-12-03T02:05:35.733Z,103261.06
2022-12-03T02:08:34.882Z,103281.44
2022-12-03T02:11:28.239Z,103240.72
2022-12-03T02:14:02.597Z,103255.13
2022-12-03T02:16:31.900Z,103252.94
2022-12-03T02:19:01.011Z,103241.09
2022-12-03T02:21:38.301Z,103257.63
2022-12-03T02:24:32.115Z,103235.81
2022-12-03T02:27:00.992Z,103253.16
2022-12-03T02:29:30.213Z,103254.56
2022-12-03T02:31:59.431Z,103264.09
2022-12-03T02:34:41.817Z,103262.69
2022-12-03T02:37:16.579Z,103276.88
2022-12-03T02:39:51.115Z,103269.16
2022-12-03T02:42:36.733Z,103234.72
2022-12-03T02:45:31.061Z,103270.75
2022-12-03T02:48:01.983Z,103274.50
2022-12-03T02:50:37.946Z,103106.59
2022-12-03T02:53:20.375Z,103251.03
2022-12-03T02:55:51.780Z,103248.88
2022-12-03T02:58:21.592Z,103239.16
2022-12-03T03:00:53.239Z,103233.91
2022-12-03T03:03:25.514Z,103261.81
2022-12-03T03:05:57.405Z,103255.47
2022-12-03T03:08:27.515Z,103278.41
2022-12-03T03:10:58.234Z,103247.38
2022-12-03T03:13:27.152Z,103258.53
2022-12-03T03:15:57.104Z,103265.38
2022-12-03T03:18:26.144Z,103284.31
2022-12-03T03:20:55.222Z,103284.31
2022-12-03T03:23:26.145Z,103269.88
2022-12-03T03:26:09.772Z,103275.50
2022-12-03T03:28:41.511Z,103242.34
2022-12-03T03:31:13.416Z,103283.56
2022-12-03T03:33:44.426Z,103267.00
2022-12-03T03:36:14.378Z,103245.19
2022-12-03T03:38:43.490Z,103253.66
2022-12-03T03:41:13.766Z,103285.41
2022-12-03T03:43:44.528Z,103276.22
2022-12-03T03:46:14.530Z,103298.75
2022-12-03T03:48:44.810Z,103292.78
2022-12-03T03:51:14.562Z,103282.34
2022-12-03T03:53:48.647Z,103266.09
2022-12-03T03:56:20.388Z,103164.50
2022-12-03T03:58:49.074Z,103245.19
2022-12-03T04:01:19.125Z,103268.06
2022-12-03T04:03:48.051Z,103260.72
2022-12-03T04:06:17.274Z,103259.81
2022-12-03T04:08:46.053Z,103265.41
2022-12-03T04:11:33.441Z,103278.03
2022-12-03T04:14:04.614Z,103254.44
2022-12-03T04:16:33.589Z,103254.63
2022-12-03T04:19:02.317Z,103254.47
2022-12-03T04:21:49.188Z,103274.13
2022-12-03T04:24:17.935Z,103293.97
2022-12-03T04:27:05.135Z,103284.25
2022-12-03T04:29:33.977Z,103264.44
2022-12-03T04:32:21.057Z,103250.06
2022-12-03T04:35:07.932Z,103246.13
2022-12-03T04:37:36.539Z,103268.97
2022-12-03T04:40:25.737Z,103244.50
2022-12-03T04:42:54.575Z,103232.78
2022-12-03T04:45:23.274Z,103268.66
2022-12-03T04:47:54.518Z,103235.66
2022-12-03T04:50:25.527Z,103258.38
2022-12-03T04:52:54.358Z,103233.88
2022-12-03T04:55:23.738Z,103153.78
2022-12-03T04:57:52.399Z,103240.72
2022-12-03T05:00:21.421Z,103246.69
2022-12-03T05:02:50.241Z,103249.38
2022-12-03T05:05:19.448Z,103251.34
2022-12-03T05:07:48.431Z,103233.19
2022-12-03T05:10:17.374Z,103213.00
2022-12-03T05:12:46.367Z,103242.00
2022-12-03T05:15:15.416Z,103267.75
2022-12-03T05:17:44.187Z,103233.16
2022-12-03T05:20:31.983Z,103222.19
2022-12-03T05:23:00.751Z,103250.66
2022-12-03T05:25:29.665Z,103273.16
2022-12-03T05:27:58.405Z,103239.81
2022-12-03T05:30:27.138Z,103237.31
2022-12-03T05:32:55.923Z,103170.84
2022-12-03T05:35:24.946Z,103162.22
2022-12-03T05:37:53.647Z,103157.53
2022-12-03T05:40:22.811Z,103227.28
2022-12-03T05:43:02.550Z,103233.75
2022-12-03T05:45:40.813Z,103253.53
2022-12-03T05:48:12.986Z,103219.66
2022-12-03T05:50:45.106Z,103207.53
2022-12-03T05:53:18.310Z,103214.69
2022-12-03T05:55:47.651Z,103231.59
2022-12-03T05:58:16.623Z,103234.81
2022-12-03T06:00:45.488Z,103216.25
2022-12-03T06:03:14.675Z,103210.88
2022-12-03T06:05:43.721Z,103233.19
2022-12-03T06:08:12.990Z,103218.56
2022-12-03T06:10:42.114Z,103117.63
2022-12-03T06:13:11.069Z,103201.03
2022-12-03T06:15:43.776Z,103191.06
2022-12-03T06:18:13.297Z,103214.91
2022-12-03T06:20:42.353Z,103103.91
2022-12-03T06:23:11.224Z,103233.66
2022-12-03T06:25:40.342Z,103232.19
2022-12-03T06:28:09.836Z,103229.06
2022-12-03T06:30:38.981Z,103199.66
2022-12-03T06:33:08.171Z,103214.06
2022-12-03T06:35:37.558Z,103178.72
2022-12-03T06:38:06.739Z,103219.63
2022-12-03T06:40:35.550Z,103090.84
2022-12-03T06:43:04.679Z,103181.72
2022-12-03T06:45:33.541Z,103180.59
2022-12-03T06:48:02.687Z,103108.16
2022-12-03T06:50:31.745Z,103187.38
2022-12-03T06:53:00.506Z,103195.16
2022-12-03T06:55:29.143Z,103171.31
2022-12-03T06:57:57.818Z,103172.25
2022-12-03T07:00:26.526Z,103097.72
2022-12-03T07:02:55.335Z,103173.31
2022-12-03T07:05:23.986Z,103162.88
2022-12-03T07:07:56.267Z,103168.91
2022-12-03T07:10:25.031Z,103197.81
2022-12-03T07:12:54.980Z,103095.41
2022-12-03T07:15:23.846Z,103159.66
2022-12-03T07:17:52.562Z,103174.97
2022-12-03T07:20:21.398Z,103154.72
2022-12-03T07:22:50.021Z,103156.53
2022-12-03T07:25:23.081Z,103153.13
2022-12-03T07:27:52.604Z,103159.25
2022-12-03T07:30:22.180Z,103155.75
2022-12-03T07:32:51.114Z,103091.63
2022-12-03T07:35:19.707Z,103148.94
2022-12-03T07:37:49.068Z,103179.16
2022-12-03T07:40:17.866Z,103171.28
2022-12-03T07:42:46.634Z,103167.28
2022-12-03T07:45:15.718Z,103125.09
2022-12-03T07:47:44.538Z,103160.13
2022-12-03T07:50:13.618Z,103133.72
2022-12-03T07:52:42.382Z,103144.34
2022-12-03T07:55:14.413Z,103136.00
2022-12-03T07:57:44.480Z,103164.25
2022-12-03T08:00:15.204Z,103145.44
2022-12-03T08:02:44.725Z,103115.69
2022-12-03T08:05:13.953Z,103113.31
2022-12-03T08:07:42.641Z,103149.34
2022-12-03T08:10:11.959Z,103125.56
2022-12-03T08:12:41.234Z,103102.28
2022-12-03T08:15:15.204Z,103120.81
2022-12-03T08:17:46.138Z,103117.84
2022-12-03T08:20:18.109Z,103123.97
2022-12-03T08:22:48.720Z,103122.16
2022-12-03T08:25:29.967Z,103090.06
2022-12-03T08:28:17.433Z,103116.47
2022-12-03T08:30:59.974Z,103135.63
2022-12-03T08:33:36.996Z,103131.59
2022-12-03T08:36:26.846Z,103089.47
2022-12-03T08:39:06.503Z,103083.78
2022-12-03T08:41:55.961Z,103089.91
2022-12-03T08:44:31.227Z,103111.72
2022-12-03T08:47:20.375Z,103076.59
2022-12-03T08:50:03.936Z,103089.47
2022-12-03T08:52:35.421Z,103088.84
2022-12-03T08:55:30.604Z,103082.28
2022-12-03T08:58:00.311Z,103097.50
2022-12-03T09:00:30.023Z,103080.03
2022-12-03T09:03:01.956Z,103074.97
2022-12-03T09:05:36.186Z,103084.38
2022-12-03T09:08:05.405Z,103079.28
2022-12-03T09:10:34.460Z,103004.75
2022-12-03T09:13:03.887Z,103072.56
2022-12-03T09:15:37.470Z,102970.88
2022-12-03T09:18:07.559Z,103087.22
2022-12-03T09:20:37.473Z,103004.00
2022-12-03T09:23:07.133Z,103066.72
2022-12-03T09:25:36.661Z,103058.81
2022-12-03T09:28:06.358Z,103056.25
2022-12-03T09:30:35.194Z,103081.97
2022-12-03T09:33:04.680Z,102955.38
2022-12-03T09:35:34.758Z,103071.69
2022-12-03T09:38:03.929Z,103079.28
2022-12-03T09:40:33.382Z,103076.16
2022-12-03T09:43:02.724Z,103048.22
2022-12-03T09:45:32.481Z,103071.97
2022-12-03T09:48:04.486Z,103070.34
2022-12-03T09:50:33.778Z,103023.56
2022-12-03T09:53:04.822Z,103078.84
2022-12-03T09:55:34.427Z,103068.41
2022-12-03T09:58:03.857Z,103062.84
2022-12-03T10:00:32.937Z,103038.66
2022-12-03T10:03:05.828Z,103035.69
2022-12-03T10:05:35.598Z,103036.59
2022-12-03T10:08:13.913Z,103064.53
2022-12-03T10:10:43.479Z,103034.50
2022-12-03T10:13:25.793Z,103032.06
2022-12-03T10:15:59.075Z,103008.16
2022-12-03T10:18:41.271Z,102998.13
2022-12-03T10:21:23.856Z,103047.72
2022-12-03T10:24:18.697Z,103060.88
2022-12-03T10:26:51.261Z,102971.06
2022-12-03T10:29:33.150Z,103056.53
2022-12-03T10:32:08.837Z,103054.09
2022-12-03T10:34:40.616Z,103028.38
2022-12-03T10:37:23.726Z,103021.47
2022-12-03T10:40:02.623Z,103022.66
2022-12-03T10:42:34.236Z,103032.19
2022-12-03T11:13:30.763Z,103041.97
2022-12-03T11:16:00.847Z,103008.28
2022-12-03T11:18:38.903Z,103043.72
2022-12-03T11:21:13.999Z,103011.41
2022-12-03T11:23:45.763Z,103044.84
2022-12-03T11:26:27.889Z,103030.53
2022-12-03T11:28:56.785Z,103037.38
2022-12-03T11:31:39.680Z,103025.53
2022-12-03T11:34:21.107Z,103043.59
2022-12-03T11:37:12.764Z,103038.94
2022-12-03T11:39:53.522Z,103031.00
2022-12-03T11:42:28.578Z,103033.97
2022-12-03T11:45:29.207Z,103036.03
2022-12-03T11:48:01.125Z,103030.63
2022-12-03T11:50:41.436Z,103019.41
2022-12-03T11:53:18.067Z,102988.81
2022-12-03T11:55:53.099Z,103015.72
2022-12-03T11:58:30.471Z,103016.13
2022-12-03T12:01:01.868Z,102915.81
2022-12-03T12:03:48.891Z,102999.25
2022-12-03T12:06:21.336Z,102972.16
2022-12-03T12:12:44.408Z,102977.31
2022-12-03T12:15:45.136Z,103005.69
2022-12-03T12:18:37.508Z,102991.84
2022-12-03T12:21:43.361Z,102986.44
2022-12-03T12:24:48.692Z,102985.97
2022-12-03T12:27:18.919Z,102955.94
2022-12-03T12:29:58.804Z,102962.06
2022-12-03T12:32:39.559Z,102980.72
2022-12-03T12:35:31.615Z,102878.84
2022-12-03T12:45:57.451Z,102952.75
2022-12-03T12:48:31.151Z,102929.09
2022-12-03T12:51:14.799Z,102967.34
2022-12-03T13:11:35.366Z,102947.94
2022-12-03T13:14:16.925Z,102927.97
2022-12-03T13:16:47.175Z,102919.88
2022-12-03T13:19:31.215Z,102947.22
2022-12-03T13:22:16.034Z,102917.34
2022-12-03T13:24:48.588Z,102921.34
2022-12-03T13:27:20.585Z,102927.97
2022-12-03T13:29:54.396Z,102924.38
2022-12-03T13:32:32.006Z,102916.13
2022-12-03T13:35:17.093Z,102914.44
2022-12-03T13:37:46.593Z,102875.31
2022-12-03T13:40:28.891Z,102921.59
2022-12-03T13:43:00.960Z,102882.50
2022-12-03T13:45:39.885Z,102905.50
2022-12-03T13:48:45.933Z,102908.41
2022-12-03T13:51:28.194Z,102785.72
2022-12-03T13:54:00.032Z,102903.81
2022-12-03T13:56:31.572Z,102834.16
2022-12-03T13:59:02.523Z,102857.44
2022-12-03T14:01:31.642Z,102864.03
2022-12-03T14:04:01.178Z,102876.53
2022-12-03T14:06:30.118Z,102877.84
2022-12-03T14:09:02.723Z,102838.41
2022-12-03T14:11:50.434Z,102845.44
2022-12-03T14:14:19.214Z,102865.22
2022-12-03T14:16:48.506Z,102848.38
2022-12-03T14:19:17.502Z,102868.09
2022-12-03T14:21:46.719Z,102868.66
2022-12-03T14:24:15.628Z,102847.63
2022-12-03T14:26:44.657Z,102834.69
2022-12-03T14:29:13.610Z,102820.50
2022-12-03T14:31:42.680Z,102866.97
2022-12-03T14:34:12.282Z,102823.03
2022-12-03T14:36:41.698Z,102837.53
2022-12-03T14:39:10.530Z,102763.00
2022-12-03T14:42:18.651Z,102840.59
2022-12-03T14:44:50.769Z,102831.22
2022-12-03T14:47:25.579Z,102845.00
2022-12-03T14:49:55.520Z,102845.34
2022-12-03T14:52:24.864Z,102829.47
2022-12-03T14:54:54.375Z,102830.09
2022-12-03T14:57:24.384Z,102817.16
2022-12-03T14:59:54.319Z,102809.81
2022-12-03T15:02:25.744Z,102836.13
2022-12-03T15:04:54.866Z,102802.75
2022-12-03T15:07:25.531Z,102795.59
2022-12-03T15:09:55.691Z,102816.91
2022-12-03T15:12:24.889Z,102796.66
2022-12-03T15:14:53.990Z,102806.00
2022-12-03T15:17:31.069Z,102811.19
2022-12-03T15:24:08.937Z,102806.44
2022-12-03T15:26:38.389Z,102837.47
2022-12-03T15:29:07.390Z,102803.19
2022-12-03T15:31:36.286Z,102788.59
2022-12-03T15:34:08.952Z,102789.66
2022-12-03T15:36:37.773Z,102809.59
2022-12-03T15:39:06.645Z,102688.50
2022-12-03T15:41:35.204Z,102818.41
2022-12-03T15:44:03.704Z,102783.28
2022-12-03T15:46:34.635Z,102811.72
2022-12-03T15:49:03.482Z,102793.00
2022-12-03T15:51:32.043Z,102771.16
2022-12-03T15:54:00.677Z,102759.69
2022-12-03T15:56:29.097Z,102783.78
2022-12-03T15:58:57.675Z,102812.13
2022-12-03T16:01:26.399Z,102763.38
2022-12-03T16:03:55.307Z,102765.63
2022-12-03T16:06:24.173Z,102769.94
2022-12-03T16:08:52.735Z,102792.66
2022-12-03T16:11:21.614Z,102763.88
2022-12-03T16:13:50.868Z,102778.72
2022-12-03T16:16:19.725Z,102699.50
2022-12-03T16:18:48.963Z,102787.59
2022-12-03T16:21:23.386Z,102781.19
2022-12-03T16:23:55.302Z,102738.09
2022-12-03T16:26:25.002Z,102748.88
2022-12-03T16:28:54.473Z,102750.44
2022-12-03T16:31:23.681Z,102744.13
2022-12-03T16:33:52.446Z,102721.97
2022-12-03T16:36:24.144Z,102739.91
2022-12-03T16:38:52.684Z,102751.59
2022-12-03T16:41:23.177Z,102731.41
2022-12-03T16:43:52.106Z,102728.59
2022-12-03T16:46:22.097Z,102763.47
2022-12-03T16:48:51.332Z,102752.84
2022-12-03T16:51:20.856Z,102753.25
2022-12-03T16:53:50.022Z,102658.50
2022-12-03T16:56:18.832Z,102715.78
2022-12-03T16:58:47.520Z,102754.38
2022-12-03T17:01:17.124Z,102746.97
2022-12-03T17:03:45.794Z,102728.00
2022-12-03T17:06:14.559Z,102724.91
2022-12-03T17:08:48.810Z,102731.91
2022-12-03T17:11:19.101Z,102749.72
2022-12-03T17:13:47.958Z,102737.34
2022-12-03T17:16:16.907Z,102717.28
2022-12-03T17:18:45.818Z,102721.31
2022-12-03T17:21:14.654Z,102696.59
2022-12-03T17:23:43.912Z,102714.56
2022-12-03T17:26:12.601Z,102707.09
2022-12-03T17:28:41.242Z,102705.72
2022-12-03T17:31:10.389Z,102727.78
2022-12-03T17:33:40.106Z,102727.63
2022-12-03T17:36:09.499Z,102739.81
2022-12-03T17:38:39.442Z,102718.47
2022-12-03T17:41:09.619Z,102738.25
2022-12-03T17:43:38.659Z,102698.66
2022-12-03T17:46:08.273Z,102566.44
2022-12-03T17:48:37.171Z,102700.47
2022-12-03T17:51:07.167Z,102732.78
2022-12-03T17:53:36.766Z,102722.75
2022-12-03T17:56:05.610Z,102728.84
2022-12-03T17:58:34.333Z,102651.06
2022-12-03T18:01:03.481Z,102685.25
2022-12-03T18:03:32.545Z,102711.25
2022-12-03T18:06:03.547Z,102713.41
2022-12-03T18:08:32.441Z,102705.88
2022-12-03T18:11:01.617Z,102707.63
2022-12-03T18:13:30.441Z,102683.63
2022-12-03T18:15:59.285Z,102704.78
2022-12-03T18:18:28.918Z,102703.56
2022-12-03T18:21:02.763Z,102679.53
2022-12-03T18:23:32.019Z,102698.16
2022-12-03T18:26:02.784Z,102658.94
2022-12-03T18:28:34.657Z,102691.19
2022-12-03T18:31:03.539Z,102685.78
2022-12-03T18:33:32.395Z,102652.13
2022-12-03T18:36:01.414Z,102668.56
2022-12-03T18:38:33.567Z,102571.81
2022-12-03T18:41:02.674Z,102678.25
2022-12-03T18:43:31.766Z,102572.19
2022-12-03T18:46:00.632Z,102625.19
2022-12-03T18:48:29.471Z,102629.13
2022-12-03T18:50:58.153Z,102629.13
2022-12-03T18:53:27.012Z,102607.19
2022-12-03T18:55:55.632Z,102617.72
2022-12-03T18:58:24.922Z,102648.31
2022-12-03T19:00:53.837Z,102612.03
2022-12-03T19:03:22.792Z,102602.53
2022-12-03T19:05:51.715Z,102465.75
2022-12-03T19:08:20.806Z,102529.16
2022-12-03T19:10:58.296Z,102620.28
2022-12-03T19:13:28.843Z,102616.31
2022-12-03T19:15:57.782Z,102605.44
2022-12-03T19:18:26.400Z,102616.19
2022-12-03T19:20:55.014Z,102610.13
2022-12-03T19:23:23.871Z,102598.25
2022-12-03T19:25:59.830Z,102585.00
2022-12-03T19:28:30.125Z,102616.22
2022-12-03T19:31:01.635Z,102594.72
2022-12-03T19:33:31.151Z,102607.81
2022-12-03T19:36:00.657Z,102622.53
2022-12-03T19:38:30.894Z,102609.81
2022-12-03T19:41:09.945Z,102577.38
2022-12-03T19:43:39.563Z,102588.13
2022-12-03T19:46:10.685Z,102603.56
2022-12-03T19:48:41.469Z,102584.19
2022-12-03T19:51:32.941Z,102565.38
2022-12-03T19:54:00.977Z,102568.59
2022-12-03T19:56:31.117Z,102556.41
2022-12-03T19:59:00.299Z,102577.00
2022-12-03T20:01:32.032Z,102570.72
2022-12-03T20:04:03.299Z,102553.16
2022-12-03T20:06:34.715Z,102533.47
2022-12-03T20:09:08.472Z,102581.69
2022-12-03T20:11:37.518Z,102568.94
2022-12-03T20:14:09.635Z,102599.63
2022-12-03T20:16:38.514Z,102576.47
2022-12-03T20:19:11.348Z,102574.13
2022-12-03T20:21:43.937Z,102530.59
2022-12-03T20:24:17.944Z,102539.72
2022-12-03T20:26:49.241Z,102538.84
2022-12-03T20:29:18.691Z,102558.38
2022-12-03T20:31:47.487Z,102570.19
2022-12-03T20:34:16.081Z,102564.81
2022-12-03T20:36:46.440Z,102558.91
2022-12-03T20:39:15.192Z,102512.66
2022-12-03T20:41:43.937Z,102547.03
2022-12-03T20:44:14.716Z,102468.09
2022-12-03T20:46:43.512Z,102519.41
2022-12-03T20:49:12.425Z,102495.47
2022-12-03T20:51:43.180Z,102471.66
2022-12-03T20:54:11.879Z,102537.00
2022-12-03T20:56:40.807Z,102504.19
2022-12-03T20:59:13.206Z,102519.59
2022-12-03T21:01:42.815Z,102516.41
2022-12-03T21:04:18.910Z,102511.16
2022-12-03T21:06:47.660Z,102481.63
2022-12-03T21:09:16.275Z,102497.56
2022-12-03T21:11:45.024Z,102513.28
2022-12-03T21:14:13.841Z,102516.88
2022-12-03T21:17:07.413Z,102510.22
2022-12-03T21:19:32.379Z,102466.00
2022-12-03T21:22:01.296Z,102477.09
2022-12-03T21:24:30.820Z,102434.88
2022-12-03T21:27:00.017Z,102483.34
2022-12-03T21:29:28.802Z,102443.84
2022-12-03T21:31:57.486Z,102441.34
2022-12-03T21:34:28.066Z,102471.38
2022-12-03T21:36:58.963Z,102446.81
2022-12-03T21:39:27.638Z,102436.63
2022-12-03T21:42:25.910Z,102460.22
2022-12-03T21:44:45.201Z,102439.88
2022-12-03T21:47:14.600Z,102453.41
2022-12-03T21:49:43.559Z,102450.75
2022-12-03T21:52:13.811Z,102397.94
2022-12-03T21:54:42.758Z,102428.94
2022-12-03T21:57:11.808Z,102423.91
2022-12-03T21:59:40.415Z,102390.41
2022-12-03T22:02:10.762Z,102401.88
2022-12-03T22:04:40.518Z,102374.69
2022-12-03T22:07:09.239Z,102424.19
2022-12-03T22:09:37.874Z,102390.03
2022-12-03T22:12:07.222Z,102403.91
2022-12-03T22:14:35.958Z,102402.06
2022-12-03T22:17:04.766Z,102344.84
2022-12-03T22:19:33.438Z,102357.38
2022-12-03T22:22:02.518Z,102388.00
2022-12-03T22:24:31.486Z,102385.16
2022-12-03T22:27:00.295Z,102368.84
2022-12-03T22:29:29.029Z,102376.31
2022-12-03T22:31:58.080Z,102363.47
2022-12-03T22:34:26.901Z,102369.22
2022-12-03T22:36:56.727Z,102350.94
2022-12-03T22:39:25.571Z,102327.50
2022-12-03T22:41:54.249Z,102347.91
2022-12-03T22:44:23.106Z,102350.41
2022-12-03T22:46:52.071Z,102365.63
2022-12-03T22:49:20.767Z,102257.59
2022-12-03T22:51:49.646Z,102335.50
2022-12-03T22:54:23.782Z,102319.38
2022-12-03T22:56:53.000Z,102318.72
2022-12-03T22:59:21.681Z,102345.28
2022-12-03T23:01:50.402Z,102346.94
2022-12-03T23:04:19.204Z,102271.63
2022-12-03T23:06:47.831Z,102317.91
2022-12-03T23:09:16.678Z,102331.91
2022-12-03T23:11:46.055Z,102319.34
2022-12-03T23:14:15.103Z,102293.25
2022-12-03T23:16:43.681Z,102320.06
2022-12-03T23:19:12.886Z,102289.69
2022-12-03T23:21:41.651Z,102288.59
2022-12-03T23:24:11.807Z,102317.03
2022-12-03T23:26:40.899Z,102236.84
2022-12-03T23:29:15.079Z,102291.50
2022-12-03T23:31:44.051Z,102299.03
2022-12-03T23:34:12.817Z,102296.38
2022-12-03T23:36:42.440Z,102260.75
2022-12-03T23:39:11.464Z,102281.63
2022-12-03T23:41:40.195Z,102275.38
2022-12-03T23:44:10.911Z,102269.81
2022-12-03T23:46:41.016Z,102297.47
2022-12-03T23:49:09.789Z,102255.13
2022-12-03T23:51:39.219Z,102274.25
2022-12-03T23:54:08.019Z,102294.63
2022-12-03T23:56:37.034Z,102271.59
2022-12-03T23:59:06.016Z,102268.53
